TimeEDT,TemperatureF,Dew PointF,Humidity,Sea Level PressureIn,VisibilityMPH,Wind Direction,Wind SpeedMPH,Gust SpeedMPH,PrecipitationIn,Events,Conditions,WindDirDegrees,DateUTC
12:15 AM,58.8,58.8,100,30.24,7.0,North,-9999.0,-,N/A,,Scattered Clouds,0,2013-09-05 04:15:00
12:35 AM,59.0,59.0,100,30.24,7.0,North,-9999.0,-,N/A,,Overcast,0,2013-09-05 04:35:00
12:55 AM,59.4,59.4,100,30.25,0.5,North,-9999.0,-,N/A,Fog,Fog,0,2013-09-05 04:55:00
1:15 AM,59.9,59.9,100,30.25,2.0,North,-9999.0,-,N/A,,Overcast,0,2013-09-05 05:15:00
1:35 AM,59.4,59.4,100,30.25,0.5,North,-9999.0,-,N/A,Fog,Fog,0,2013-09-05 05:35:00
1:55 AM,59.0,59.0,100,30.24,2.5,North,-9999.0,-,N/A,,Overcast,0,2013-09-05 05:55:00
2:15 AM,60.1,60.1,100,30.23,0.8,North,-9999.0,-,N/A,,Overcast,0,2013-09-05 06:15:00
2:35 AM,60.6,60.6,100,30.23,0.2,North,-9999.0,-,N/A,Fog,Fog,0,2013-09-05 06:35:00
2:55 AM,60.6,60.6,100,30.23,0.2,North,-9999.0,-,N/A,Fog,Fog,0,2013-09-05 06:55:00
3:15 AM,60.4,60.4,100,30.23,0.2,North,-9999.0,-,N/A,Fog,Fog,0,2013-09-05 07:15:00
3:35 AM,60.3,60.3,100,30.24,0.2,North,-9999.0,-,N/A,Fog,Fog,0,2013-09-05 07:35:00
3:55 AM,59.4,59.4,100,30.24,0.5,North,-9999.0,-,N/A,Fog,Fog,0,2013-09-05 07:55:00
4:15 AM,59.2,59.2,100,30.24,0.8,North,-9999.0,-,N/A,,Overcast,0,2013-09-05 08:15:00
4:35 AM,59.0,59.0,100,30.24,0.8,North,-9999.0,-,N/A,,Overcast,0,2013-09-05 08:35:00
4:55 AM,59.0,59.0,100,30.24,0.8,North,-9999.0,-,N/A,,Overcast,0,2013-09-05 08:55:00
5:15 AM,58.5,58.5,100,30.24,0.8,North,-9999.0,-,N/A,,Overcast,0,2013-09-05 09:15:00
5:35 AM,58.5,58.5,100,30.24,0.5,North,-9999.0,-,N/A,Fog,Fog,0,2013-09-05 09:35:00
5:55 AM,58.5,58.5,100,30.25,0.2,North,-9999.0,-,N/A,Fog,Fog,0,2013-09-05 09:55:00
6:15 AM,58.5,58.5,100,30.25,0.5,North,-9999.0,-,N/A,Fog,Fog,0,2013-09-05 10:15:00
6:35 AM,58.6,58.6,100,30.25,0.5,North,-9999.0,-,N/A,Fog,Fog,0,2013-09-05 10:35:00
6:55 AM,58.8,58.8,100,30.25,0.2,North,-9999.0,-,N/A,Fog,Fog,0,2013-09-05 10:55:00
7:15 AM,58.6,58.6,100,30.26,0.2,North,-9999.0,-,N/A,Fog,Fog,0,2013-09-05 11:15:00
7:35 AM,58.8,58.8,100,30.26,0.2,North,-9999.0,-,N/A,Fog,Fog,0,2013-09-05 11:35:00
7:55 AM,58.5,58.5,100,30.27,0.2,North,-9999.0,-,N/A,Fog,Fog,0,2013-09-05 11:55:00
8:15 AM,58.6,58.6,100,30.28,0.2,North,-9999.0,-,N/A,Fog,Fog,0,2013-09-05 12:15:00
8:35 AM,58.6,58.6,100,30.28,0.2,North,-9999.0,-,N/A,Fog,Fog,0,2013-09-05 12:35:00
8:55 AM,59.2,59.2,100,30.28,1.2,North,-9999.0,-,N/A,,Overcast,0,2013-09-05 12:55:00
9:15 AM,59.9,59.9,100,30.28,1.8,North,-9999.0,-,N/A,,Overcast,0,2013-09-05 13:15:00
9:35 AM,60.1,60.1,100,30.29,5.0,North,-9999.0,-,N/A,,Overcast,0,2013-09-05 13:35:00
9:55 AM,61.0,61.0,100,30.29,5.0,North,-9999.0,-,N/A,,Overcast,0,2013-09-05 13:55:00
10:15 AM,63.1,63.1,100,30.29,10.0,North,-9999.0,-,N/A,,Overcast,0,2013-09-05 14:15:00
10:35 AM,65.1,63.7,95,30.29,10.0,North,-9999.0,-,N/A,,Mostly Cloudy,0,2013-09-05 14:35:00
10:55 AM,67.5,64.0,89,30.29,10.0,North,-9999.0,-,N/A,,Scattered Clouds,0,2013-09-05 14:55:00
11:15 AM,70.7,65.1,82,30.29,10.0,North,-9999.0,-,N/A,,Clear,0,2013-09-05 15:15:00
11:35 AM,72.7,65.3,78,30.29,10.0,North,-9999.0,-,N/A,,Clear,0,2013-09-05 15:35:00
11:55 AM,74.1,64.9,73,30.29,10.0,North,-9999.0,-,N/A,,Clear,0,2013-09-05 15:55:00
12:15 PM,75.6,65.1,70,30.28,10.0,North,-9999.0,-,N/A,,Clear,0,2013-09-05 16:15:00
12:35 PM,76.1,65.3,69,30.27,10.0,North,-9999.0,-,N/A,,Scattered Clouds,0,2013-09-05 16:35:00
12:55 PM,77.2,65.8,68,30.26,10.0,North,-9999.0,-,N/A,,Scattered Clouds,0,2013-09-05 16:55:00
1:15 PM,77.9,65.8,66,30.26,10.0,North,-9999.0,-,N/A,,Scattered Clouds,0,2013-09-05 17:15:00
1:35 PM,77.9,65.5,65,30.26,10.0,North,-9999.0,-,N/A,,Scattered Clouds,0,2013-09-05 17:35:00
1:55 PM,79.3,66.6,65,30.25,10.0,North,-9999.0,-,N/A,,Scattered Clouds,0,2013-09-05 17:55:00
2:15 PM,80.4,66.0,61,30.25,10.0,North,-9999.0,-,N/A,,Scattered Clouds,0,2013-09-05 18:15:00
2:35 PM,79.7,65.5,62,30.25,10.0,North,-9999.0,-,N/A,,Scattered Clouds,0,2013-09-05 18:35:00
2:55 PM,81.5,64.8,57,30.24,10.0,North,-9999.0,-,N/A,,Mostly Cloudy,0,2013-09-05 18:55:00
3:15 PM,82.0,62.6,52,30.23,10.0,North,-9999.0,-,N/A,,Scattered Clouds,0,2013-09-05 19:15:00
3:35 PM,81.5,63.0,53,30.23,10.0,North,-9999.0,-,N/A,,Clear,0,2013-09-05 19:35:00
3:55 PM,82.9,62.2,49,30.23,10.0,North,-9999.0,-,N/A,,Clear,0,2013-09-05 19:55:00
4:15 PM,81.7,61.3,50,30.23,10.0,North,-9999.0,-,N/A,,Clear,0,2013-09-05 20:15:00
4:35 PM,81.3,62.2,52,30.23,10.0,North,-9999.0,-,N/A,,Clear,0,2013-09-05 20:35:00
4:55 PM,81.0,62.8,54,30.23,10.0,North,-9999.0,-,N/A,,Clear,0,2013-09-05 20:55:00
5:15 PM,79.3,64.0,59,30.22,10.0,North,-9999.0,-,N/A,,Scattered Clouds,0,2013-09-05 21:15:00
5:35 PM,79.0,63.3,59,30.22,10.0,North,-9999.0,-,N/A,,Scattered Clouds,0,2013-09-05 21:35:00
5:55 PM,77.9,63.5,61,30.23,10.0,North,-9999.0,-,N/A,,Scattered Clouds,0,2013-09-05 21:55:00
6:15 PM,74.3,65.8,75,30.22,10.0,North,-9999.0,-,N/A,,Scattered Clouds,0,2013-09-05 22:15:00
6:35 PM,72.5,66.9,83,30.22,10.0,North,-9999.0,-,N/A,,Clear,0,2013-09-05 22:35:00
6:55 PM,70.7,67.1,88,30.22,10.0,North,-9999.0,-,N/A,,Clear,0,2013-09-05 22:55:00
7:15 PM,69.4,66.4,90,30.22,10.0,North,-9999.0,-,N/A,,Clear,0,2013-09-05 23:15:00
7:35 PM,68.4,66.2,93,30.22,10.0,North,-9999.0,-,N/A,,Clear,0,2013-09-05 23:35:00
7:55 PM,67.1,65.7,95,30.22,10.0,North,-9999.0,-,N/A,,Clear,0,2013-09-05 23:55:00
8:15 PM,66.0,64.8,96,30.23,10.0,North,-9999.0,-,N/A,,Clear,0,2013-09-06 00:15:00
8:35 PM,65.3,64.4,97,30.23,10.0,North,-9999.0,-,N/A,,Clear,0,2013-09-06 00:35:00
8:55 PM,64.6,63.9,98,30.23,10.0,North,-9999.0,-,N/A,,Clear,0,2013-09-06 00:55:00
9:15 PM,64.2,63.7,98,30.24,10.0,North,-9999.0,-,N/A,,Clear,0,2013-09-06 01:15:00
9:35 PM,63.5,63.1,99,30.24,10.0,North,-9999.0,-,N/A,,Clear,0,2013-09-06 01:35:00
9:55 PM,63.0,62.8,99,30.25,10.0,North,-9999.0,-,N/A,,Clear,0,2013-09-06 01:55:00
10:15 PM,62.6,62.6,100,30.25,10.0,North,-9999.0,-,N/A,,Clear,0,2013-09-06 02:15:00
10:35 PM,62.2,62.2,100,30.25,7.0,North,-9999.0,-,N/A,,Clear,0,2013-09-06 02:35:00
10:55 PM,62.1,62.1,100,30.25,7.0,North,-9999.0,-,N/A,,Clear,0,2013-09-06 02:55:00
11:15 PM,61.7,61.7,100,30.26,5.0,North,-9999.0,-,N/A,,Clear,0,2013-09-06 03:15:00
11:35 PM,61.3,61.3,100,30.26,5.0,North,-9999.0,-,N/A,,Clear,0,2013-09-06 03:35:00
11:55 PM,61.0,61.0,100,30.26,5.0,North,-9999.0,-,N/A,,Clear,0,2013-09-06 03:55:00